East Shoals, Indiana
Current Conditions -  °F | °C
As of 4:35 PM on Friday 24 Oct 2014 (Local Time) from KDCY Reporting Station
Clear Clear  
Wind Chill: 67°   Ceiling: Unl
Heat Index: 67°   Visibility: 7mi
Dew Point: 53°   Wind: 6mph
Humidity: 62%   Direction: 250°WSW
Pressure: 30.03"   Gusts: NA
Location:  38.6262°N, 86.7615°W
Report Text: KDCY 242135Z AUTO 25005KT 7SM CLR 19/12 A3003 RMK AO2 T01920117
Loading
Personal Weather Stations






























Interactive Weather Map New forecast layout! Learn more

10-Day Weather Forecast

Advertisements
Track Severe Weather on mobile